sensor_id;sensor_type;location;lat;lon;timestamp;P1;durP1;ratioP1;P2;durP2;ratioP2
47657;SDS011;33958;48.404;10.598;2022-08-03T00:01:29;3.90;;;1.92;;
47657;SDS011;33958;48.404;10.598;2022-08-03T00:03:56;3.58;;;2.00;;
47657;SDS011;33958;48.404;10.598;2022-08-03T00:06:23;2.97;;;1.65;;
47657;SDS011;33958;48.404;10.598;2022-08-03T00:08:50;5.25;;;1.95;;
47657;SDS011;33958;48.404;10.598;2022-08-03T00:11:17;4.97;;;2.00;;
47657;SDS011;33958;48.404;10.598;2022-08-03T00:13:44;4.45;;;1.80;;
47657;SDS011;33958;48.404;10.598;2022-08-03T00:16:11;4.13;;;1.85;;
47657;SDS011;33958;48.404;10.598;2022-08-03T00:18:39;4.47;;;2.00;;
47657;SDS011;33958;48.404;10.598;2022-08-03T00:21:06;2.55;;;1.67;;
47657;SDS011;33958;48.404;10.598;2022-08-03T00:23:33;5.65;;;2.00;;
47657;SDS011;33958;48.404;10.598;2022-08-03T00:26:17;4.50;;;1.63;;
47657;SDS011;33958;48.404;10.598;2022-08-03T00:28:48;4.03;;;1.95;;
47657;SDS011;33958;48.404;10.598;2022-08-03T00:31:15;3.00;;;1.80;;
47657;SDS011;33958;48.404;10.598;2022-08-03T00:34:02;4.18;;;1.80;;
47657;SDS011;33958;48.404;10.598;2022-08-03T00:36:31;4.93;;;2.00;;
47657;SDS011;33958;48.404;10.598;2022-08-03T00:38:57;4.78;;;1.70;;
47657;SDS011;33958;48.404;10.598;2022-08-03T00:41:24;3.30;;;1.73;;
47657;SDS011;33958;48.404;10.598;2022-08-03T00:43:51;4.57;;;1.80;;
47657;SDS011;33958;48.404;10.598;2022-08-03T00:46:18;3.55;;;1.70;;
47657;SDS011;33958;48.404;10.598;2022-08-03T00:48:48;4.07;;;1.95;;
47657;SDS011;33958;48.404;10.598;2022-08-03T00:51:15;4.15;;;2.13;;
47657;SDS011;33958;48.404;10.598;2022-08-03T00:53:44;3.60;;;1.60;;
47657;SDS011;33958;48.404;10.598;2022-08-03T00:56:14;6.30;;;1.80;;
47657;SDS011;33958;48.404;10.598;2022-08-03T00:58:42;3.22;;;1.83;;
47657;SDS011;33958;48.404;10.598;2022-08-03T01:01:10;2.92;;;1.77;;
47657;SDS011;33958;48.404;10.598;2022-08-03T01:03:38;5.05;;;1.70;;
47657;SDS011;33958;48.404;10.598;2022-08-03T01:16:37;2.83;;;1.25;;
47657;SDS011;33958;48.404;10.598;2022-08-03T01:19:35;3.20;;;1.60;;
47657;SDS011;33958;48.404;10.598;2022-08-03T01:22:17;3.05;;;1.70;;
47657;SDS011;33958;48.404;10.598;2022-08-03T01:28:15;5.72;;;1.77;;
47657;SDS011;33958;48.404;10.598;2022-08-03T01:30:58;3.15;;;1.65;;
47657;SDS011;33958;48.404;10.598;2022-08-03T01:33:34;4.75;;;1.35;;
47657;SDS011;33958;48.404;10.598;2022-08-03T01:36:13;3.33;;;1.50;;
47657;SDS011;33958;48.404;10.598;2022-08-03T01:38:48;2.60;;;1.45;;
47657;SDS011;33958;48.404;10.598;2022-08-03T01:41:24;4.13;;;1.47;;
47657;SDS011;33958;48.404;10.598;2022-08-03T01:43:57;5.80;;;1.90;;
47657;SDS011;33958;48.404;10.598;2022-08-03T01:46:47;3.63;;;1.77;;
47657;SDS011;33958;48.404;10.598;2022-08-03T01:49:16;4.97;;;2.08;;
47657;SDS011;33958;48.404;10.598;2022-08-03T01:51:44;5.75;;;1.77;;
47657;SDS011;33958;48.404;10.598;2022-08-03T01:54:30;5.18;;;2.10;;
47657;SDS011;33958;48.404;10.598;2022-08-03T01:57:01;3.25;;;1.90;;
47657;SDS011;33958;48.404;10.598;2022-08-03T01:59:29;4.55;;;2.20;;
47657;SDS011;33958;48.404;10.598;2022-08-03T02:01:57;4.43;;;1.92;;
47657;SDS011;33958;48.404;10.598;2022-08-03T02:04:46;4.78;;;2.20;;
47657;SDS011;33958;48.404;10.598;2022-08-03T02:07:14;4.60;;;2.17;;
47657;SDS011;33958;48.404;10.598;2022-08-03T02:09:43;3.70;;;2.20;;
47657;SDS011;33958;48.404;10.598;2022-08-03T02:12:12;5.05;;;2.08;;
47657;SDS011;33958;48.404;10.598;2022-08-03T02:14:42;6.72;;;2.65;;
47657;SDS011;33958;48.404;10.598;2022-08-03T02:17:10;6.45;;;2.40;;
47657;SDS011;33958;48.404;10.598;2022-08-03T02:19:39;7.28;;;2.63;;
47657;SDS011;33958;48.404;10.598;2022-08-03T02:22:11;6.32;;;2.45;;
47657;SDS011;33958;48.404;10.598;2022-08-03T02:24:39;4.83;;;2.20;;
47657;SDS011;33958;48.404;10.598;2022-08-03T02:27:17;4.88;;;2.17;;
47657;SDS011;33958;48.404;10.598;2022-08-03T02:29:48;3.97;;;2.20;;
47657;SDS011;33958;48.404;10.598;2022-08-03T02:32:20;3.47;;;1.75;;
47657;SDS011;33958;48.404;10.598;2022-08-03T02:34:50;3.47;;;1.45;;
47657;SDS011;33958;48.404;10.598;2022-08-03T02:37:21;5.35;;;2.10;;
47657;SDS011;33958;48.404;10.598;2022-08-03T02:39:53;5.25;;;2.17;;
47657;SDS011;33958;48.404;10.598;2022-08-03T02:42:27;5.43;;;2.13;;
47657;SDS011;33958;48.404;10.598;2022-08-03T02:47:25;5.45;;;1.58;;
47657;SDS011;33958;48.404;10.598;2022-08-03T02:50:15;6.43;;;2.08;;
47657;SDS011;33958;48.404;10.598;2022-08-03T02:52:43;4.00;;;1.83;;
47657;SDS011;33958;48.404;10.598;2022-08-03T02:55:11;4.97;;;2.00;;
47657;SDS011;33958;48.404;10.598;2022-08-03T02:57:40;6.88;;;2.40;;
47657;SDS011;33958;48.404;10.598;2022-08-03T03:00:10;6.40;;;2.30;;
47657;SDS011;33958;48.404;10.598;2022-08-03T03:02:51;5.95;;;2.30;;
47657;SDS011;33958;48.404;10.598;2022-08-03T03:05:20;4.53;;;2.35;;
47657;SDS011;33958;48.404;10.598;2022-08-03T03:08:07;4.35;;;2.42;;
47657;SDS011;33958;48.404;10.598;2022-08-03T03:10:46;7.32;;;2.65;;
47657;SDS011;33958;48.404;10.598;2022-08-03T03:13:18;7.47;;;2.08;;
47657;SDS011;33958;48.404;10.598;2022-08-03T03:15:47;8.80;;;2.80;;
47657;SDS011;33958;48.404;10.598;2022-08-03T03:18:15;6.78;;;2.20;;
47657;SDS011;33958;48.404;10.598;2022-08-03T03:20:48;4.07;;;1.88;;
47657;SDS011;33958;48.404;10.598;2022-08-03T03:23:16;8.27;;;2.03;;
47657;SDS011;33958;48.404;10.598;2022-08-03T03:25:44;7.38;;;3.10;;
47657;SDS011;33958;48.404;10.598;2022-08-03T03:28:11;5.55;;;2.15;;
47657;SDS011;33958;48.404;10.598;2022-08-03T03:30:38;5.03;;;2.58;;
47657;SDS011;33958;48.404;10.598;2022-08-03T03:33:05;6.70;;;2.33;;
47657;SDS011;33958;48.404;10.598;2022-08-03T03:35:33;4.97;;;2.58;;
47657;SDS011;33958;48.404;10.598;2022-08-03T03:38:04;5.72;;;2.10;;
47657;SDS011;33958;48.404;10.598;2022-08-03T03:40:34;8.15;;;2.72;;
47657;SDS011;33958;48.404;10.598;2022-08-03T03:43:01;7.57;;;2.55;;
47657;SDS011;33958;48.404;10.598;2022-08-03T03:45:33;5.70;;;2.55;;
47657;SDS011;33958;48.404;10.598;2022-08-03T03:48:01;4.22;;;2.15;;
47657;SDS011;33958;48.404;10.598;2022-08-03T03:52:58;5.75;;;2.70;;
47657;SDS011;33958;48.404;10.598;2022-08-03T03:55:25;5.03;;;2.35;;
47657;SDS011;33958;48.404;10.598;2022-08-03T03:57:51;5.85;;;2.58;;
47657;SDS011;33958;48.404;10.598;2022-08-03T04:00:19;5.72;;;2.63;;
47657;SDS011;33958;48.404;10.598;2022-08-03T04:02:46;4.25;;;2.17;;
47657;SDS011;33958;48.404;10.598;2022-08-03T04:05:13;5.20;;;2.08;;
47657;SDS011;33958;48.404;10.598;2022-08-03T04:10:53;5.43;;;2.30;;
47657;SDS011;33958;48.404;10.598;2022-08-03T04:13:40;5.60;;;1.90;;
47657;SDS011;33958;48.404;10.598;2022-08-03T04:16:11;3.85;;;1.73;;
47657;SDS011;33958;48.404;10.598;2022-08-03T04:18:40;2.95;;;1.52;;
47657;SDS011;33958;48.404;10.598;2022-08-03T04:21:10;6.07;;;2.05;;
47657;SDS011;33958;48.404;10.598;2022-08-03T04:23:42;6.07;;;1.58;;
47657;SDS011;33958;48.404;10.598;2022-08-03T04:26:14;2.97;;;1.60;;
47657;SDS011;33958;48.404;10.598;2022-08-03T04:28:44;3.53;;;2.05;;
47657;SDS011;33958;48.404;10.598;2022-08-03T04:31:12;3.38;;;1.70;;
47657;SDS011;33958;48.404;10.598;2022-08-03T04:33:42;4.40;;;1.92;;
47657;SDS011;33958;48.404;10.598;2022-08-03T04:36:11;4.10;;;1.80;;
47657;SDS011;33958;48.404;10.598;2022-08-03T04:39:26;3.70;;;1.70;;
47657;SDS011;33958;48.404;10.598;2022-08-03T04:41:36;5.72;;;1.70;;
47657;SDS011;33958;48.404;10.598;2022-08-03T04:44:24;2.70;;;1.73;;
47657;SDS011;33958;48.404;10.598;2022-08-03T04:46:54;4.45;;;1.92;;
47657;SDS011;33958;48.404;10.598;2022-08-03T04:49:22;4.57;;;2.33;;
47657;SDS011;33958;48.404;10.598;2022-08-03T04:51:49;3.33;;;2.10;;
47657;SDS011;33958;48.404;10.598;2022-08-03T04:54:16;4.32;;;1.92;;
47657;SDS011;33958;48.404;10.598;2022-08-03T04:56:43;3.33;;;1.90;;
47657;SDS011;33958;48.404;10.598;2022-08-03T04:59:10;5.18;;;2.10;;
47657;SDS011;33958;48.404;10.598;2022-08-03T05:01:38;4.70;;;2.03;;
47657;SDS011;33958;48.404;10.598;2022-08-03T05:04:06;6.05;;;2.00;;
47657;SDS011;33958;48.404;10.598;2022-08-03T05:06:33;5.38;;;2.33;;
47657;SDS011;33958;48.404;10.598;2022-08-03T05:09:00;5.28;;;1.85;;
47657;SDS011;33958;48.404;10.598;2022-08-03T05:11:29;5.25;;;2.85;;
47657;SDS011;33958;48.404;10.598;2022-08-03T05:13:56;3.95;;;2.00;;
47657;SDS011;33958;48.404;10.598;2022-08-03T05:16:23;3.40;;;1.98;;
47657;SDS011;33958;48.404;10.598;2022-08-03T05:18:50;4.43;;;2.50;;
47657;SDS011;33958;48.404;10.598;2022-08-03T05:21:18;6.65;;;2.15;;
47657;SDS011;33958;48.404;10.598;2022-08-03T05:23:44;3.72;;;2.05;;
47657;SDS011;33958;48.404;10.598;2022-08-03T05:26:11;4.75;;;1.98;;
47657;SDS011;33958;48.404;10.598;2022-08-03T05:28:38;5.68;;;2.30;;
47657;SDS011;33958;48.404;10.598;2022-08-03T05:31:16;4.10;;;2.20;;
47657;SDS011;33958;48.404;10.598;2022-08-03T05:33:43;6.30;;;2.50;;
47657;SDS011;33958;48.404;10.598;2022-08-03T05:36:10;10.40;;;2.10;;
47657;SDS011;33958;48.404;10.598;2022-08-03T05:38:37;6.68;;;2.50;;
47657;SDS011;33958;48.404;10.598;2022-08-03T05:41:04;3.63;;;2.38;;
47657;SDS011;33958;48.404;10.598;2022-08-03T05:43:48;5.43;;;2.20;;
47657;SDS011;33958;48.404;10.598;2022-08-03T05:46:16;5.85;;;2.20;;
47657;SDS011;33958;48.404;10.598;2022-08-03T05:48:43;6.22;;;2.33;;
47657;SDS011;33958;48.404;10.598;2022-08-03T05:51:10;7.75;;;2.17;;
47657;SDS011;33958;48.404;10.598;2022-08-03T05:53:38;5.57;;;2.47;;
47657;SDS011;33958;48.404;10.598;2022-08-03T05:56:06;4.28;;;2.20;;
47657;SDS011;33958;48.404;10.598;2022-08-03T05:58:44;9.02;;;2.30;;
47657;SDS011;33958;48.404;10.598;2022-08-03T06:01:13;4.10;;;2.08;;
47657;SDS011;33958;48.404;10.598;2022-08-03T06:03:41;5.15;;;2.42;;
47657;SDS011;33958;48.404;10.598;2022-08-03T06:06:09;3.85;;;2.08;;
47657;SDS011;33958;48.404;10.598;2022-08-03T06:08:36;6.88;;;2.65;;
47657;SDS011;33958;48.404;10.598;2022-08-03T06:11:04;5.72;;;2.00;;
47657;SDS011;33958;48.404;10.598;2022-08-03T06:13:31;6.75;;;2.30;;
47657;SDS011;33958;48.404;10.598;2022-08-03T06:15:58;5.05;;;2.63;;
47657;SDS011;33958;48.404;10.598;2022-08-03T06:18:25;5.95;;;2.40;;
47657;SDS011;33958;48.404;10.598;2022-08-03T06:20:52;6.68;;;2.45;;
47657;SDS011;33958;48.404;10.598;2022-08-03T06:23:20;6.43;;;3.15;;
47657;SDS011;33958;48.404;10.598;2022-08-03T06:25:47;4.85;;;2.58;;
47657;SDS011;33958;48.404;10.598;2022-08-03T06:28:14;4.72;;;2.55;;
47657;SDS011;33958;48.404;10.598;2022-08-03T06:31:01;4.57;;;2.72;;
47657;SDS011;33958;48.404;10.598;2022-08-03T06:33:31;5.82;;;2.58;;
47657;SDS011;33958;48.404;10.598;2022-08-03T06:36:18;5.80;;;2.50;;
47657;SDS011;33958;48.404;10.598;2022-08-03T06:38:45;5.32;;;2.42;;
47657;SDS011;33958;48.404;10.598;2022-08-03T06:41:13;6.82;;;2.90;;
47657;SDS011;33958;48.404;10.598;2022-08-03T06:43:40;4.20;;;2.35;;
47657;SDS011;33958;48.404;10.598;2022-08-03T06:46:28;6.00;;;2.47;;
47657;SDS011;33958;48.404;10.598;2022-08-03T06:48:55;4.72;;;2.70;;
47657;SDS011;33958;48.404;10.598;2022-08-03T06:51:23;5.47;;;2.85;;
47657;SDS011;33958;48.404;10.598;2022-08-03T06:54:10;6.00;;;2.50;;
47657;SDS011;33958;48.404;10.598;2022-08-03T06:56:37;6.10;;;3.17;;
47657;SDS011;33958;48.404;10.598;2022-08-03T06:59:04;5.97;;;2.22;;
47657;SDS011;33958;48.404;10.598;2022-08-03T07:01:32;6.47;;;2.08;;
47657;SDS011;33958;48.404;10.598;2022-08-03T07:03:58;4.15;;;2.20;;
47657;SDS011;33958;48.404;10.598;2022-08-03T07:06:26;4.75;;;2.05;;
47657;SDS011;33958;48.404;10.598;2022-08-03T07:08:53;4.00;;;2.05;;
47657;SDS011;33958;48.404;10.598;2022-08-03T07:11:24;5.70;;;2.25;;
47657;SDS011;33958;48.404;10.598;2022-08-03T07:13:51;5.90;;;2.53;;
47657;SDS011;33958;48.404;10.598;2022-08-03T07:16:18;4.70;;;2.10;;
47657;SDS011;33958;48.404;10.598;2022-08-03T07:18:45;4.70;;;2.25;;
47657;SDS011;33958;48.404;10.598;2022-08-03T07:21:13;4.80;;;2.53;;
47657;SDS011;33958;48.404;10.598;2022-08-03T07:23:41;6.35;;;2.35;;
47657;SDS011;33958;48.404;10.598;2022-08-03T07:26:08;2.97;;;1.83;;
47657;SDS011;33958;48.404;10.598;2022-08-03T07:28:35;5.53;;;1.95;;
47657;SDS011;33958;48.404;10.598;2022-08-03T07:31:04;7.55;;;2.40;;
47657;SDS011;33958;48.404;10.598;2022-08-03T07:33:31;4.18;;;1.30;;
47657;SDS011;33958;48.404;10.598;2022-08-03T07:35:58;2.08;;;1.20;;
47657;SDS011;33958;48.404;10.598;2022-08-03T07:38:24;2.45;;;0.90;;
47657;SDS011;33958;48.404;10.598;2022-08-03T07:40:52;1.63;;;1.10;;
47657;SDS011;33958;48.404;10.598;2022-08-03T07:43:19;2.70;;;1.30;;
47657;SDS011;33958;48.404;10.598;2022-08-03T07:45:46;2.08;;;1.13;;
47657;SDS011;33958;48.404;10.598;2022-08-03T07:48:13;1.80;;;1.10;;
47657;SDS011;33958;48.404;10.598;2022-08-03T07:50:39;4.90;;;1.60;;
47657;SDS011;33958;48.404;10.598;2022-08-03T07:53:06;1.50;;;1.00;;
47657;SDS011;33958;48.404;10.598;2022-08-03T07:55:34;1.60;;;1.23;;
47657;SDS011;33958;48.404;10.598;2022-08-03T07:58:07;1.60;;;1.00;;
47657;SDS011;33958;48.404;10.598;2022-08-03T08:00:48;1.85;;;1.10;;
47657;SDS011;33958;48.404;10.598;2022-08-03T08:03:18;2.83;;;1.00;;
47657;SDS011;33958;48.404;10.598;2022-08-03T08:05:47;3.75;;;1.02;;
47657;SDS011;33958;48.404;10.598;2022-08-03T08:08:14;2.67;;;1.10;;
47657;SDS011;33958;48.404;10.598;2022-08-03T08:10:41;3.85;;;1.20;;
47657;SDS011;33958;48.404;10.598;2022-08-03T08:13:23;1.73;;;1.05;;
47657;SDS011;33958;48.404;10.598;2022-08-03T08:15:50;1.33;;;1.08;;
47657;SDS011;33958;48.404;10.598;2022-08-03T08:18:17;4.15;;;1.17;;
47657;SDS011;33958;48.404;10.598;2022-08-03T08:20:44;2.42;;;1.20;;
47657;SDS011;33958;48.404;10.598;2022-08-03T08:23:11;2.55;;;0.80;;
47657;SDS011;33958;48.404;10.598;2022-08-03T08:25:58;1.70;;;1.00;;
47657;SDS011;33958;48.404;10.598;2022-08-03T08:28:25;2.13;;;1.08;;
47657;SDS011;33958;48.404;10.598;2022-08-03T08:30:58;1.65;;;0.90;;
47657;SDS011;33958;48.404;10.598;2022-08-03T08:33:27;1.25;;;0.85;;
47657;SDS011;33958;48.404;10.598;2022-08-03T08:36:14;2.90;;;0.90;;
47657;SDS011;33958;48.404;10.598;2022-08-03T08:38:41;1.83;;;1.00;;
47657;SDS011;33958;48.404;10.598;2022-08-03T08:41:11;1.42;;;0.88;;
47657;SDS011;33958;48.404;10.598;2022-08-03T08:43:39;1.27;;;0.90;;
47657;SDS011;33958;48.404;10.598;2022-08-03T08:46:07;1.60;;;0.93;;
47657;SDS011;33958;48.404;10.598;2022-08-03T08:48:41;2.22;;;0.85;;
47657;SDS011;33958;48.404;10.598;2022-08-03T08:51:11;7.03;;;1.13;;
47657;SDS011;33958;48.404;10.598;2022-08-03T08:53:40;2.20;;;0.82;;
47657;SDS011;33958;48.404;10.598;2022-08-03T08:56:11;1.50;;;1.00;;
47657;SDS011;33958;48.404;10.598;2022-08-03T08:58:52;2.28;;;0.88;;
47657;SDS011;33958;48.404;10.598;2022-08-03T09:01:23;1.80;;;0.93;;
47657;SDS011;33958;48.404;10.598;2022-08-03T09:03:51;1.80;;;1.08;;
47657;SDS011;33958;48.404;10.598;2022-08-03T09:06:20;1.43;;;1.10;;
47657;SDS011;33958;48.404;10.598;2022-08-03T09:08:48;1.85;;;0.93;;
47657;SDS011;33958;48.404;10.598;2022-08-03T09:11:19;1.23;;;0.90;;
47657;SDS011;33958;48.404;10.598;2022-08-03T09:14:07;1.67;;;0.95;;
47657;SDS011;33958;48.404;10.598;2022-08-03T09:16:56;1.20;;;0.83;;
47657;SDS011;33958;48.404;10.598;2022-08-03T09:19:25;2.05;;;0.93;;
47657;SDS011;33958;48.404;10.598;2022-08-03T09:22:09;1.20;;;0.90;;
47657;SDS011;33958;48.404;10.598;2022-08-03T09:24:57;1.90;;;1.00;;
47657;SDS011;33958;48.404;10.598;2022-08-03T09:27:45;2.33;;;0.90;;
47657;SDS011;33958;48.404;10.598;2022-08-03T09:30:13;1.45;;;0.75;;
47657;SDS011;33958;48.404;10.598;2022-08-03T09:33:00;1.35;;;1.00;;
47657;SDS011;33958;48.404;10.598;2022-08-03T09:35:28;1.42;;;0.90;;
47657;SDS011;33958;48.404;10.598;2022-08-03T09:38:16;3.75;;;1.20;;
47657;SDS011;33958;48.404;10.598;2022-08-03T09:40:44;1.15;;;1.00;;
47657;SDS011;33958;48.404;10.598;2022-08-03T09:43:12;1.55;;;1.00;;
47657;SDS011;33958;48.404;10.598;2022-08-03T09:45:39;2.65;;;1.08;;
47657;SDS011;33958;48.404;10.598;2022-08-03T09:48:49;1.58;;;0.88;;
47657;SDS011;33958;48.404;10.598;2022-08-03T09:51:00;2.58;;;1.13;;
47657;SDS011;33958;48.404;10.598;2022-08-03T09:53:48;1.63;;;1.30;;
47657;SDS011;33958;48.404;10.598;2022-08-03T09:56:41;1.98;;;1.00;;
47657;SDS011;33958;48.404;10.598;2022-08-03T09:59:10;2.72;;;1.08;;
47657;SDS011;33958;48.404;10.598;2022-08-03T10:01:38;2.15;;;0.93;;
47657;SDS011;33958;48.404;10.598;2022-08-03T10:04:12;1.75;;;0.90;;
47657;SDS011;33958;48.404;10.598;2022-08-03T10:06:40;0.88;;;0.73;;
47657;SDS011;33958;48.404;10.598;2022-08-03T10:09:10;3.58;;;1.00;;
47657;SDS011;33958;48.404;10.598;2022-08-03T10:11:41;0.70;;;0.70;;
47657;SDS011;33958;48.404;10.598;2022-08-03T10:14:10;3.60;;;1.02;;
47657;SDS011;33958;48.404;10.598;2022-08-03T10:16:45;1.15;;;0.80;;
47657;SDS011;33958;48.404;10.598;2022-08-03T10:19:12;1.80;;;0.80;;
47657;SDS011;33958;48.404;10.598;2022-08-03T10:21:41;9.05;;;1.00;;
47657;SDS011;33958;48.404;10.598;2022-08-03T10:24:15;0.98;;;0.73;;
47657;SDS011;33958;48.404;10.598;2022-08-03T10:26:46;1.35;;;0.85;;
47657;SDS011;33958;48.404;10.598;2022-08-03T10:29:21;0.68;;;0.60;;
47657;SDS011;33958;48.404;10.598;2022-08-03T10:31:53;4.45;;;2.25;;
47657;SDS011;33958;48.404;10.598;2022-08-03T10:34:28;2.38;;;0.90;;
47657;SDS011;33958;48.404;10.598;2022-08-03T10:37:00;1.83;;;0.90;;
47657;SDS011;33958;48.404;10.598;2022-08-03T10:39:33;2.60;;;0.90;;
47657;SDS011;33958;48.404;10.598;2022-08-03T10:42:01;3.33;;;0.98;;
47657;SDS011;33958;48.404;10.598;2022-08-03T10:44:39;1.40;;;0.70;;
47657;SDS011;33958;48.404;10.598;2022-08-03T10:47:08;1.48;;;0.80;;
47657;SDS011;33958;48.404;10.598;2022-08-03T10:49:36;2.15;;;0.70;;
47657;SDS011;33958;48.404;10.598;2022-08-03T10:52:03;2.60;;;0.85;;
47657;SDS011;33958;48.404;10.598;2022-08-03T10:54:44;2.22;;;0.80;;
47657;SDS011;33958;48.404;10.598;2022-08-03T11:00:24;0.80;;;0.70;;
47657;SDS011;33958;48.404;10.598;2022-08-03T11:03:12;1.80;;;0.88;;
47657;SDS011;33958;48.404;10.598;2022-08-03T11:10:52;0.70;;;0.70;;
47657;SDS011;33958;48.404;10.598;2022-08-03T11:13:22;1.30;;;0.80;;
47657;SDS011;33958;48.404;10.598;2022-08-03T11:15:53;2.20;;;0.77;;
47657;SDS011;33958;48.404;10.598;2022-08-03T11:18:25;1.52;;;0.80;;
47657;SDS011;33958;48.404;10.598;2022-08-03T11:20:53;1.10;;;0.70;;
47657;SDS011;33958;48.404;10.598;2022-08-03T11:23:42;1.48;;;0.80;;
47657;SDS011;33958;48.404;10.598;2022-08-03T11:26:29;1.30;;;0.80;;
47657;SDS011;33958;48.404;10.598;2022-08-03T11:29:10;2.58;;;0.90;;
47657;SDS011;33958;48.404;10.598;2022-08-03T11:31:53;0.70;;;0.70;;
47657;SDS011;33958;48.404;10.598;2022-08-03T11:34:21;0.88;;;0.73;;
47657;SDS011;33958;48.404;10.598;2022-08-03T11:39:55;0.82;;;0.70;;
47657;SDS011;33958;48.404;10.598;2022-08-03T11:44:49;0.82;;;0.70;;
47657;SDS011;33958;48.404;10.598;2022-08-03T11:47:18;0.90;;;0.70;;
47657;SDS011;33958;48.404;10.598;2022-08-03T11:49:47;1.05;;;0.80;;
47657;SDS011;33958;48.404;10.598;2022-08-03T11:52:17;1.48;;;0.68;;
47657;SDS011;33958;48.404;10.598;2022-08-03T11:54:52;0.93;;;0.82;;
47657;SDS011;33958;48.404;10.598;2022-08-03T11:57:29;1.40;;;0.80;;
47657;SDS011;33958;48.404;10.598;2022-08-03T12:00:29;1.02;;;0.80;;
47657;SDS011;33958;48.404;10.598;2022-08-03T12:02:59;1.17;;;0.80;;
47657;SDS011;33958;48.404;10.598;2022-08-03T12:05:42;1.10;;;0.77;;
47657;SDS011;33958;48.404;10.598;2022-08-03T12:08:18;0.93;;;0.60;;
47657;SDS011;33958;48.404;10.598;2022-08-03T12:11:00;0.85;;;0.70;;
47657;SDS011;33958;48.404;10.598;2022-08-03T12:13:46;2.03;;;1.02;;
47657;SDS011;33958;48.404;10.598;2022-08-03T12:16:36;0.88;;;0.73;;
47657;SDS011;33958;48.404;10.598;2022-08-03T12:19:03;0.80;;;0.75;;
47657;SDS011;33958;48.404;10.598;2022-08-03T12:24:02;2.55;;;0.80;;
47657;SDS011;33958;48.404;10.598;2022-08-03T12:26:45;0.90;;;0.80;;
47657;SDS011;33958;48.404;10.598;2022-08-03T12:29:25;0.90;;;0.70;;
47657;SDS011;33958;48.404;10.598;2022-08-03T12:31:55;1.23;;;0.70;;
47657;SDS011;33958;48.404;10.598;2022-08-03T12:34:41;1.90;;;0.80;;
47657;SDS011;33958;48.404;10.598;2022-08-03T12:37:12;1.00;;;0.70;;
47657;SDS011;33958;48.404;10.598;2022-08-03T12:39:51;2.08;;;0.70;;
47657;SDS011;33958;48.404;10.598;2022-08-03T12:42:29;3.15;;;0.80;;
47657;SDS011;33958;48.404;10.598;2022-08-03T12:47:50;0.95;;;0.80;;
47657;SDS011;33958;48.404;10.598;2022-08-03T12:53:00;1.00;;;0.80;;
47657;SDS011;33958;48.404;10.598;2022-08-03T12:55:36;2.05;;;0.80;;
47657;SDS011;33958;48.404;10.598;2022-08-03T12:58:30;1.73;;;0.88;;
47657;SDS011;33958;48.404;10.598;2022-08-03T13:01:04;2.38;;;0.70;;
47657;SDS011;33958;48.404;10.598;2022-08-03T13:03:42;1.80;;;1.15;;
47657;SDS011;33958;48.404;10.598;2022-08-03T13:06:21;2.30;;;1.02;;
47657;SDS011;33958;48.404;10.598;2022-08-03T13:09:03;2.05;;;0.98;;
47657;SDS011;33958;48.404;10.598;2022-08-03T13:11:31;0.85;;;0.80;;
47657;SDS011;33958;48.404;10.598;2022-08-03T13:14:19;0.70;;;0.70;;
47657;SDS011;33958;48.404;10.598;2022-08-03T13:16:46;1.13;;;0.80;;
47657;SDS011;33958;48.404;10.598;2022-08-03T13:19:14;1.60;;;0.95;;
47657;SDS011;33958;48.404;10.598;2022-08-03T13:21:42;1.55;;;0.80;;
47657;SDS011;33958;48.404;10.598;2022-08-03T13:24:29;1.95;;;0.82;;
47657;SDS011;33958;48.404;10.598;2022-08-03T13:26:57;1.10;;;0.70;;
47657;SDS011;33958;48.404;10.598;2022-08-03T13:29:25;1.33;;;0.93;;
47657;SDS011;33958;48.404;10.598;2022-08-03T13:31:52;1.90;;;0.82;;
47657;SDS011;33958;48.404;10.598;2022-08-03T13:34:19;0.60;;;0.60;;
47657;SDS011;33958;48.404;10.598;2022-08-03T13:36:49;1.00;;;0.70;;
47657;SDS011;33958;48.404;10.598;2022-08-03T13:39:37;0.75;;;0.75;;
47657;SDS011;33958;48.404;10.598;2022-08-03T13:42:24;0.57;;;0.57;;
47657;SDS011;33958;48.404;10.598;2022-08-03T13:44:51;1.20;;;0.65;;
47657;SDS011;33958;48.404;10.598;2022-08-03T13:47:19;2.60;;;0.73;;
47657;SDS011;33958;48.404;10.598;2022-08-03T13:49:46;0.80;;;0.80;;
47657;SDS011;33958;48.404;10.598;2022-08-03T13:52:26;1.42;;;0.93;;
47657;SDS011;33958;48.404;10.598;2022-08-03T13:54:53;1.20;;;0.60;;
47657;SDS011;33958;48.404;10.598;2022-08-03T13:57:20;1.13;;;0.75;;
47657;SDS011;33958;48.404;10.598;2022-08-03T14:00:07;2.35;;;0.90;;
47657;SDS011;33958;48.404;10.598;2022-08-03T14:02:35;3.10;;;1.10;;
47657;SDS011;33958;48.404;10.598;2022-08-03T14:05:03;1.33;;;1.00;;
47657;SDS011;33958;48.404;10.598;2022-08-03T14:07:30;1.77;;;0.90;;
47657;SDS011;33958;48.404;10.598;2022-08-03T14:09:57;1.70;;;0.95;;
47657;SDS011;33958;48.404;10.598;2022-08-03T14:12:24;0.70;;;0.70;;
47657;SDS011;33958;48.404;10.598;2022-08-03T14:14:51;1.48;;;1.00;;
47657;SDS011;33958;48.404;10.598;2022-08-03T14:17:18;1.80;;;1.00;;
47657;SDS011;33958;48.404;10.598;2022-08-03T14:19:49;4.07;;;0.80;;
47657;SDS011;33958;48.404;10.598;2022-08-03T14:22:19;1.20;;;0.70;;
47657;SDS011;33958;48.404;10.598;2022-08-03T14:24:46;1.08;;;0.93;;
47657;SDS011;33958;48.404;10.598;2022-08-03T14:27:16;1.20;;;0.70;;
47657;SDS011;33958;48.404;10.598;2022-08-03T14:29:43;0.73;;;0.63;;
47657;SDS011;33958;48.404;10.598;2022-08-03T14:32:10;1.10;;;0.70;;
47657;SDS011;33958;48.404;10.598;2022-08-03T14:34:39;1.30;;;0.50;;
47657;SDS011;33958;48.404;10.598;2022-08-03T14:37:06;1.65;;;0.90;;
47657;SDS011;33958;48.404;10.598;2022-08-03T14:39:33;1.35;;;0.90;;
47657;SDS011;33958;48.404;10.598;2022-08-03T14:42:20;1.23;;;0.90;;
47657;SDS011;33958;48.404;10.598;2022-08-03T14:44:47;0.60;;;0.60;;
47657;SDS011;33958;48.404;10.598;2022-08-03T14:47:14;0.75;;;0.63;;
47657;SDS011;33958;48.404;10.598;2022-08-03T14:49:42;1.27;;;0.80;;
47657;SDS011;33958;48.404;10.598;2022-08-03T14:52:29;2.15;;;0.80;;
47657;SDS011;33958;48.404;10.598;2022-08-03T14:54:57;1.85;;;0.80;;
47657;SDS011;33958;48.404;10.598;2022-08-03T14:57:25;0.90;;;0.70;;
47657;SDS011;33958;48.404;10.598;2022-08-03T14:59:52;1.17;;;0.68;;
47657;SDS011;33958;48.404;10.598;2022-08-03T15:02:22;1.10;;;0.65;;
47657;SDS011;33958;48.404;10.598;2022-08-03T15:04:50;2.45;;;0.60;;
47657;SDS011;33958;48.404;10.598;2022-08-03T15:07:18;1.00;;;0.70;;
47657;SDS011;33958;48.404;10.598;2022-08-03T15:09:46;4.35;;;0.90;;
47657;SDS011;33958;48.404;10.598;2022-08-03T15:12:13;1.13;;;0.80;;
47657;SDS011;33958;48.404;10.598;2022-08-03T15:14:40;2.20;;;0.80;;
47657;SDS011;33958;48.404;10.598;2022-08-03T15:17:07;0.95;;;0.82;;
47657;SDS011;33958;48.404;10.598;2022-08-03T15:19:34;1.95;;;0.90;;
47657;SDS011;33958;48.404;10.598;2022-08-03T15:22:21;2.33;;;0.80;;
47657;SDS011;33958;48.404;10.598;2022-08-03T15:24:59;1.13;;;0.80;;
47657;SDS011;33958;48.404;10.598;2022-08-03T15:27:28;0.90;;;0.70;;
47657;SDS011;33958;48.404;10.598;2022-08-03T15:29:55;2.85;;;0.80;;
47657;SDS011;33958;48.404;10.598;2022-08-03T15:32:35;1.40;;;0.75;;
47657;SDS011;33958;48.404;10.598;2022-08-03T15:35:02;2.97;;;0.70;;
47657;SDS011;33958;48.404;10.598;2022-08-03T15:37:29;1.30;;;0.80;;
47657;SDS011;33958;48.404;10.598;2022-08-03T15:39:56;0.80;;;0.70;;
47657;SDS011;33958;48.404;10.598;2022-08-03T15:42:25;0.73;;;0.70;;
47657;SDS011;33958;48.404;10.598;2022-08-03T15:44:53;1.05;;;0.70;;